sensor_id;sensor_type;location;lat;lon;timestamp;pressure;altitude;pressure_sealevel;temperature;humidity
20889;BME280;10604;51.976;7.594;2022-07-21T00:02:02;101050.31;;;35.04;41.69
20889;BME280;10604;51.976;7.594;2022-07-21T00:04:27;101045.41;;;34.35;43.04
20889;BME280;10604;51.976;7.594;2022-07-21T00:06:52;101029.13;;;34.19;42.93
20889;BME280;10604;51.976;7.594;2022-07-21T00:09:17;101014.59;;;33.53;43.35
20889;BME280;10604;51.976;7.594;2022-07-21T00:11:43;100995.59;;;33.37;44.57
20889;BME280;10604;51.976;7.594;2022-07-21T00:14:08;100966.22;;;33.90;42.58
20889;BME280;10604;51.976;7.594;2022-07-21T00:16:34;100942.94;;;33.79;43.66
20889;BME280;10604;51.976;7.594;2022-07-21T00:19:00;100927.97;;;32.10;46.81
20889;BME280;10604;51.976;7.594;2022-07-21T00:21:26;100929.28;;;32.83;45.17
20889;BME280;10604;51.976;7.594;2022-07-21T00:23:51;100934.88;;;33.04;44.79
20889;BME280;10604;51.976;7.594;2022-07-21T00:26:17;100948.22;;;33.51;44.13
20889;BME280;10604;51.976;7.594;2022-07-21T00:28:42;100959.53;;;33.48;43.99
20889;BME280;10604;51.976;7.594;2022-07-21T00:31:07;100960.88;;;33.52;43.05
20889;BME280;10604;51.976;7.594;2022-07-21T00:33:32;100970.47;;;34.28;42.01
20889;BME280;10604;51.976;7.594;2022-07-21T00:35:58;100963.34;;;33.98;42.81
20889;BME280;10604;51.976;7.594;2022-07-21T00:38:23;100958.56;;;33.70;43.58
20889;BME280;10604;51.976;7.594;2022-07-21T00:40:48;100961.50;;;33.10;44.49
20889;BME280;10604;51.976;7.594;2022-07-21T00:43:14;100954.47;;;33.74;43.72
20889;BME280;10604;51.976;7.594;2022-07-21T00:45:39;100952.50;;;33.90;42.89
20889;BME280;10604;51.976;7.594;2022-07-21T00:48:04;100960.94;;;33.88;43.10
20889;BME280;10604;51.976;7.594;2022-07-21T00:50:30;100968.66;;;33.70;42.61
20889;BME280;10604;51.976;7.594;2022-07-21T00:52:56;100966.53;;;34.16;41.87
20889;BME280;10604;51.976;7.594;2022-07-21T00:55:22;100982.22;;;32.67;44.65
20889;BME280;10604;51.976;7.594;2022-07-21T00:57:48;100977.84;;;33.62;42.86
20889;BME280;10604;51.976;7.594;2022-07-21T01:00:15;100992.78;;;34.46;40.77
20889;BME280;10604;51.976;7.594;2022-07-21T01:02:41;100989.09;;;34.18;41.83
20889;BME280;10604;51.976;7.594;2022-07-21T01:05:07;101002.31;;;34.29;40.95
20889;BME280;10604;51.976;7.594;2022-07-21T01:07:37;101003.75;;;34.46;40.67
20889;BME280;10604;51.976;7.594;2022-07-21T01:10:03;100992.41;;;34.49;40.62
20889;BME280;10604;51.976;7.594;2022-07-21T01:12:28;100999.84;;;34.55;40.62
20889;BME280;10604;51.976;7.594;2022-07-21T01:14:54;101005.47;;;34.90;40.26
20889;BME280;10604;51.976;7.594;2022-07-21T01:17:19;101007.28;;;34.62;41.03
20889;BME280;10604;51.976;7.594;2022-07-21T01:19:45;101006.13;;;34.49;41.10
20889;BME280;10604;51.976;7.594;2022-07-21T01:22:10;101013.81;;;33.59;42.52
20889;BME280;10604;51.976;7.594;2022-07-21T01:24:36;101012.38;;;34.22;41.48
20889;BME280;10604;51.976;7.594;2022-07-21T01:27:01;101019.28;;;34.39;41.41
20889;BME280;10604;51.976;7.594;2022-07-21T01:29:26;101015.38;;;34.27;41.47
20889;BME280;10604;51.976;7.594;2022-07-21T01:31:52;101015.88;;;34.01;41.65
20889;BME280;10604;51.976;7.594;2022-07-21T01:34:17;101024.75;;;34.39;41.22
20889;BME280;10604;51.976;7.594;2022-07-21T01:36:45;101021.03;;;34.11;41.35
20889;BME280;10604;51.976;7.594;2022-07-21T01:39:11;101010.75;;;34.13;41.86
20889;BME280;10604;51.976;7.594;2022-07-21T01:41:55;101010.56;;;34.14;41.55
20889;BME280;10604;51.976;7.594;2022-07-21T01:44:20;101003.44;;;34.20;41.49
20889;BME280;10604;51.976;7.594;2022-07-21T01:46:47;101006.66;;;34.60;41.27
20889;BME280;10604;51.976;7.594;2022-07-21T01:49:13;101000.44;;;34.15;41.19
20889;BME280;10604;51.976;7.594;2022-07-21T01:51:39;101008.53;;;33.58;42.38
20889;BME280;10604;51.976;7.594;2022-07-21T01:54:06;100996.91;;;33.70;42.43
20889;BME280;10604;51.976;7.594;2022-07-21T01:56:32;100994.31;;;34.13;41.96
20889;BME280;10604;51.976;7.594;2022-07-21T01:58:58;100994.41;;;34.05;41.95
20889;BME280;10604;51.976;7.594;2022-07-21T02:01:24;100992.81;;;34.10;41.72
20889;BME280;10604;51.976;7.594;2022-07-21T02:03:51;101000.38;;;34.23;41.19
20889;BME280;10604;51.976;7.594;2022-07-21T02:06:17;100999.53;;;34.08;41.67
20889;BME280;10604;51.976;7.594;2022-07-21T02:08:42;100992.16;;;32.83;44.10
20889;BME280;10604;51.976;7.594;2022-07-21T02:11:10;100991.72;;;33.31;42.81
20889;BME280;10604;51.976;7.594;2022-07-21T02:13:35;100998.59;;;33.42;43.40
20889;BME280;10604;51.976;7.594;2022-07-21T02:16:01;100992.97;;;32.69;43.20
20889;BME280;10604;51.976;7.594;2022-07-21T02:18:26;101001.06;;;33.37;43.10
20889;BME280;10604;51.976;7.594;2022-07-21T02:20:51;101008.25;;;33.38;42.96
20889;BME280;10604;51.976;7.594;2022-07-21T02:23:17;100993.38;;;33.18;42.32
20889;BME280;10604;51.976;7.594;2022-07-21T02:25:43;100989.69;;;32.50;43.60
20889;BME280;10604;51.976;7.594;2022-07-21T02:28:08;100992.41;;;32.96;42.82
20889;BME280;10604;51.976;7.594;2022-07-21T02:30:33;100999.09;;;32.93;43.47
20889;BME280;10604;51.976;7.594;2022-07-21T02:32:59;100983.75;;;31.77;44.60
20889;BME280;10604;51.976;7.594;2022-07-21T02:35:24;100994.00;;;30.87;46.42
20889;BME280;10604;51.976;7.594;2022-07-21T02:37:49;100988.88;;;31.80;44.82
20889;BME280;10604;51.976;7.594;2022-07-21T02:40:14;100990.22;;;32.23;44.68
20889;BME280;10604;51.976;7.594;2022-07-21T02:42:40;100990.63;;;31.73;45.24
20889;BME280;10604;51.976;7.594;2022-07-21T02:45:06;100993.03;;;31.99;44.86
20889;BME280;10604;51.976;7.594;2022-07-21T02:47:31;100991.25;;;32.14;43.99
20889;BME280;10604;51.976;7.594;2022-07-21T02:49:56;101001.97;;;32.77;42.94
20889;BME280;10604;51.976;7.594;2022-07-21T02:52:22;101007.47;;;32.69;43.42
20889;BME280;10604;51.976;7.594;2022-07-21T02:54:47;101003.56;;;32.18;44.24
20889;BME280;10604;51.976;7.594;2022-07-21T02:57:12;101015.34;;;33.10;42.76
20889;BME280;10604;51.976;7.594;2022-07-21T02:59:37;101017.00;;;31.25;45.97
20889;BME280;10604;51.976;7.594;2022-07-21T03:02:03;101020.69;;;32.35;44.44
20889;BME280;10604;51.976;7.594;2022-07-21T03:04:28;101021.50;;;32.66;42.76
20889;BME280;10604;51.976;7.594;2022-07-21T03:06:53;101017.81;;;32.82;43.49
20889;BME280;10604;51.976;7.594;2022-07-21T03:09:19;101013.72;;;33.00;42.81
20889;BME280;10604;51.976;7.594;2022-07-21T03:11:44;101008.44;;;33.36;42.04
20889;BME280;10604;51.976;7.594;2022-07-21T03:14:09;101009.72;;;33.26;42.30
20889;BME280;10604;51.976;7.594;2022-07-21T03:16:34;101008.88;;;32.11;43.93
20889;BME280;10604;51.976;7.594;2022-07-21T03:19:00;101012.19;;;32.30;44.20
20889;BME280;10604;51.976;7.594;2022-07-21T03:21:25;101014.53;;;32.02;44.27
20889;BME280;10604;51.976;7.594;2022-07-21T03:23:50;101008.03;;;32.11;44.45
20889;BME280;10604;51.976;7.594;2022-07-21T03:26:16;101014.19;;;31.49;45.64
20889;BME280;10604;51.976;7.594;2022-07-21T03:28:42;101025.09;;;32.66;43.57
20889;BME280;10604;51.976;7.594;2022-07-21T03:31:07;101014.59;;;33.16;42.43
20889;BME280;10604;51.976;7.594;2022-07-21T03:33:33;101009.66;;;32.51;44.12
20889;BME280;10604;51.976;7.594;2022-07-21T03:35:58;101005.09;;;33.26;42.44
20889;BME280;10604;51.976;7.594;2022-07-21T03:38:24;101006.97;;;32.74;43.09
20889;BME280;10604;51.976;7.594;2022-07-21T03:40:49;101012.28;;;33.04;42.58
20889;BME280;10604;51.976;7.594;2022-07-21T03:43:15;101004.84;;;32.98;43.45
20889;BME280;10604;51.976;7.594;2022-07-21T03:45:40;101001.16;;;32.91;42.86
20889;BME280;10604;51.976;7.594;2022-07-21T03:48:06;100996.84;;;33.12;42.98
20889;BME280;10604;51.976;7.594;2022-07-21T03:50:32;100996.72;;;33.28;42.37
20889;BME280;10604;51.976;7.594;2022-07-21T03:52:58;100986.53;;;33.51;41.93
20889;BME280;10604;51.976;7.594;2022-07-21T03:55:24;100982.81;;;33.15;42.27
20889;BME280;10604;51.976;7.594;2022-07-21T03:58:07;100984.78;;;32.46;43.12
20889;BME280;10604;51.976;7.594;2022-07-21T04:00:37;100975.41;;;32.40;43.66
20889;BME280;10604;51.976;7.594;2022-07-21T04:03:04;100974.03;;;32.13;44.23
20889;BME280;10604;51.976;7.594;2022-07-21T04:05:30;100971.53;;;32.80;42.82
20889;BME280;10604;51.976;7.594;2022-07-21T04:07:55;100975.00;;;32.74;43.32
20889;BME280;10604;51.976;7.594;2022-07-21T04:10:26;100978.34;;;32.39;43.71
20889;BME280;10604;51.976;7.594;2022-07-21T04:12:52;100972.03;;;32.61;43.73
20889;BME280;10604;51.976;7.594;2022-07-21T04:15:18;100969.47;;;32.37;43.79
20889;BME280;10604;51.976;7.594;2022-07-21T04:17:43;100970.03;;;32.92;43.20
20889;BME280;10604;51.976;7.594;2022-07-21T04:20:09;100973.81;;;32.91;42.00
20889;BME280;10604;51.976;7.594;2022-07-21T04:22:35;100979.94;;;32.93;42.70
20889;BME280;10604;51.976;7.594;2022-07-21T04:25:00;100975.41;;;33.38;41.65
20889;BME280;10604;51.976;7.594;2022-07-21T04:27:26;100972.84;;;33.36;41.58
20889;BME280;10604;51.976;7.594;2022-07-21T04:29:51;100976.78;;;32.05;43.36
20889;BME280;10604;51.976;7.594;2022-07-21T04:32:17;100972.53;;;32.56;42.86
20889;BME280;10604;51.976;7.594;2022-07-21T04:34:42;100980.66;;;32.73;42.56
20889;BME280;10604;51.976;7.594;2022-07-21T04:37:07;100974.28;;;32.95;42.24
20889;BME280;10604;51.976;7.594;2022-07-21T04:39:32;100974.16;;;33.26;41.70
20889;BME280;10604;51.976;7.594;2022-07-21T04:41:58;100972.66;;;33.23;41.47
20889;BME280;10604;51.976;7.594;2022-07-21T04:44:23;100974.88;;;32.45;43.04
20889;BME280;10604;51.976;7.594;2022-07-21T04:46:48;100965.34;;;31.79;44.29
20889;BME280;10604;51.976;7.594;2022-07-21T04:49:14;100965.69;;;32.38;42.74
20889;BME280;10604;51.976;7.594;2022-07-21T04:51:39;100967.81;;;33.11;41.80
20889;BME280;10604;51.976;7.594;2022-07-21T04:54:05;100952.00;;;33.35;41.29
20889;BME280;10604;51.976;7.594;2022-07-21T04:56:30;100946.44;;;33.43;40.58
20889;BME280;10604;51.976;7.594;2022-07-21T04:58:57;100943.84;;;32.60;42.10
20889;BME280;10604;51.976;7.594;2022-07-21T05:01:23;100954.75;;;32.83;41.39
20889;BME280;10604;51.976;7.594;2022-07-21T05:03:48;100951.03;;;33.14;42.03
20889;BME280;10604;51.976;7.594;2022-07-21T05:06:13;100956.91;;;33.40;41.59
20889;BME280;10604;51.976;7.594;2022-07-21T05:08:38;100948.03;;;33.38;41.40
20889;BME280;10604;51.976;7.594;2022-07-21T05:11:04;100951.19;;;32.97;42.52
20889;BME280;10604;51.976;7.594;2022-07-21T05:13:29;100948.75;;;33.02;42.59
20889;BME280;10604;51.976;7.594;2022-07-21T05:15:54;100962.41;;;32.88;42.14
20889;BME280;10604;51.976;7.594;2022-07-21T05:18:20;100965.47;;;32.24;43.75
20889;BME280;10604;51.976;7.594;2022-07-21T05:20:45;100968.78;;;32.80;43.17
20889;BME280;10604;51.976;7.594;2022-07-21T05:23:10;100961.78;;;32.09;43.71
20889;BME280;10604;51.976;7.594;2022-07-21T05:25:36;100963.63;;;31.39;45.31
20889;BME280;10604;51.976;7.594;2022-07-21T05:28:02;100970.31;;;32.37;44.10
20889;BME280;10604;51.976;7.594;2022-07-21T05:30:28;100971.66;;;31.24;45.66
20889;BME280;10604;51.976;7.594;2022-07-21T05:32:53;100969.69;;;32.27;44.09
20889;BME280;10604;51.976;7.594;2022-07-21T05:35:18;100964.16;;;31.26;45.56
20889;BME280;10604;51.976;7.594;2022-07-21T05:37:44;100970.31;;;31.04;46.48
20889;BME280;10604;51.976;7.594;2022-07-21T05:40:10;100972.88;;;32.39;44.41
20889;BME280;10604;51.976;7.594;2022-07-21T05:42:36;100978.56;;;32.52;43.48
20889;BME280;10604;51.976;7.594;2022-07-21T05:45:01;100978.38;;;32.31;43.62
20889;BME280;10604;51.976;7.594;2022-07-21T05:47:27;100972.91;;;31.69;44.89
20889;BME280;10604;51.976;7.594;2022-07-21T05:49:53;100982.94;;;32.61;42.89
20889;BME280;10604;51.976;7.594;2022-07-21T05:52:18;100990.13;;;32.99;42.97
20889;BME280;10604;51.976;7.594;2022-07-21T05:54:44;100996.91;;;33.41;41.54
20889;BME280;10604;51.976;7.594;2022-07-21T05:57:09;100993.03;;;33.35;42.26
20889;BME280;10604;51.976;7.594;2022-07-21T05:59:34;100993.63;;;33.60;41.73
20889;BME280;10604;51.976;7.594;2022-07-21T06:01:59;100999.66;;;33.41;42.33
20889;BME280;10604;51.976;7.594;2022-07-21T06:04:25;101000.88;;;33.83;41.56
20889;BME280;10604;51.976;7.594;2022-07-21T06:06:50;101003.31;;;34.07;41.26
20889;BME280;10604;51.976;7.594;2022-07-21T06:09:17;101012.44;;;34.14;41.06
20889;BME280;10604;51.976;7.594;2022-07-21T06:11:43;101005.66;;;34.10;40.35
20889;BME280;10604;51.976;7.594;2022-07-21T06:14:08;101010.88;;;33.75;41.22
20889;BME280;10604;51.976;7.594;2022-07-21T06:16:33;101018.41;;;32.92;41.83
20889;BME280;10604;51.976;7.594;2022-07-21T06:18:59;101017.75;;;33.27;41.89
20889;BME280;10604;51.976;7.594;2022-07-21T06:21:26;101014.19;;;34.00;40.82
20889;BME280;10604;51.976;7.594;2022-07-21T06:23:51;101021.13;;;34.53;39.99
20889;BME280;10604;51.976;7.594;2022-07-21T06:26:18;101016.97;;;34.57;39.56
20889;BME280;10604;51.976;7.594;2022-07-21T06:28:43;101016.31;;;34.77;39.87
20889;BME280;10604;51.976;7.594;2022-07-21T06:31:08;101010.63;;;34.21;40.63
20889;BME280;10604;51.976;7.594;2022-07-21T06:33:33;101013.28;;;35.14;39.01
20889;BME280;10604;51.976;7.594;2022-07-21T06:35:59;101014.41;;;34.56;39.58
20889;BME280;10604;51.976;7.594;2022-07-21T06:38:24;101022.91;;;34.25;39.93
20889;BME280;10604;51.976;7.594;2022-07-21T06:40:49;101031.28;;;33.58;41.16
20889;BME280;10604;51.976;7.594;2022-07-21T06:43:15;101032.03;;;33.52;41.06
20889;BME280;10604;51.976;7.594;2022-07-21T06:45:40;101036.59;;;33.74;41.01
20889;BME280;10604;51.976;7.594;2022-07-21T06:48:06;101022.16;;;34.31;39.76
20889;BME280;10604;51.976;7.594;2022-07-21T06:50:32;101034.19;;;34.51;40.06
20889;BME280;10604;51.976;7.594;2022-07-21T06:52:57;101036.75;;;34.53;39.78
20889;BME280;10604;51.976;7.594;2022-07-21T06:55:23;101033.81;;;33.08;42.08
20889;BME280;10604;51.976;7.594;2022-07-21T06:57:49;101025.03;;;34.23;40.89
20889;BME280;10604;51.976;7.594;2022-07-21T07:00:17;101032.25;;;34.45;40.47
20889;BME280;10604;51.976;7.594;2022-07-21T07:02:42;101027.63;;;33.80;41.06
20889;BME280;10604;51.976;7.594;2022-07-21T07:05:07;101028.75;;;34.37;40.52
20889;BME280;10604;51.976;7.594;2022-07-21T07:07:33;101035.84;;;34.46;40.07
20889;BME280;10604;51.976;7.594;2022-07-21T07:09:58;101034.56;;;33.68;41.14
20889;BME280;10604;51.976;7.594;2022-07-21T07:12:24;101034.00;;;34.53;40.27
20889;BME280;10604;51.976;7.594;2022-07-21T07:14:49;101025.47;;;34.12;40.34
20889;BME280;10604;51.976;7.594;2022-07-21T07:17:15;101038.78;;;33.04;42.71
20889;BME280;10604;51.976;7.594;2022-07-21T07:19:40;101036.91;;;33.42;41.85
20889;BME280;10604;51.976;7.594;2022-07-21T07:22:06;101039.00;;;33.99;41.58
20889;BME280;10604;51.976;7.594;2022-07-21T07:24:31;101033.50;;;34.28;40.14
20889;BME280;10604;51.976;7.594;2022-07-21T07:26:56;101043.75;;;33.46;41.84
20889;BME280;10604;51.976;7.594;2022-07-21T07:29:22;101037.63;;;33.88;41.79
20889;BME280;10604;51.976;7.594;2022-07-21T07:31:47;101035.88;;;34.31;41.13
20889;BME280;10604;51.976;7.594;2022-07-21T07:34:12;101043.97;;;33.89;41.12
20889;BME280;10604;51.976;7.594;2022-07-21T07:36:38;101039.69;;;34.51;40.10
20889;BME280;10604;51.976;7.594;2022-07-21T07:39:03;101040.06;;;34.48;40.43
20889;BME280;10604;51.976;7.594;2022-07-21T07:41:29;101036.34;;;34.56;40.74
20889;BME280;10604;51.976;7.594;2022-07-21T07:43:57;101041.75;;;34.49;40.48
20889;BME280;10604;51.976;7.594;2022-07-21T07:46:27;101037.38;;;34.04;40.72
20889;BME280;10604;51.976;7.594;2022-07-21T07:48:52;101032.94;;;34.54;40.78
20889;BME280;10604;51.976;7.594;2022-07-21T07:51:18;101033.56;;;34.92;39.87
20889;BME280;10604;51.976;7.594;2022-07-21T07:53:43;101040.25;;;33.15;42.26
20889;BME280;10604;51.976;7.594;2022-07-21T07:56:09;101034.84;;;34.75;39.78
20889;BME280;10604;51.976;7.594;2022-07-21T07:58:34;101035.06;;;34.94;39.49
20889;BME280;10604;51.976;7.594;2022-07-21T08:01:00;101040.47;;;34.67;39.81
20889;BME280;10604;51.976;7.594;2022-07-21T08:03:25;101040.72;;;35.14;39.63
20889;BME280;10604;51.976;7.594;2022-07-21T08:05:52;101043.97;;;33.89;40.33
20889;BME280;10604;51.976;7.594;2022-07-21T08:08:17;101033.53;;;33.69;41.32
20889;BME280;10604;51.976;7.594;2022-07-21T08:10:43;101028.16;;;34.41;40.35
20889;BME280;10604;51.976;7.594;2022-07-21T08:13:14;101039.66;;;33.57;41.25
20889;BME280;10604;51.976;7.594;2022-07-21T08:15:40;101033.75;;;33.53;41.15
20889;BME280;10604;51.976;7.594;2022-07-21T08:18:05;101037.06;;;32.88;42.11
20889;BME280;10604;51.976;7.594;2022-07-21T08:20:31;101037.88;;;34.08;41.41
20889;BME280;10604;51.976;7.594;2022-07-21T08:22:56;101042.59;;;33.55;41.19
20889;BME280;10604;51.976;7.594;2022-07-21T08:25:22;101037.13;;;33.85;41.55
20889;BME280;10604;51.976;7.594;2022-07-21T08:27:47;101038.75;;;33.94;40.64
20889;BME280;10604;51.976;7.594;2022-07-21T08:30:12;101034.84;;;33.44;41.50
20889;BME280;10604;51.976;7.594;2022-07-21T08:32:38;101029.31;;;34.32;39.86
20889;BME280;10604;51.976;7.594;2022-07-21T08:35:03;101036.41;;;34.63;39.59
20889;BME280;10604;51.976;7.594;2022-07-21T08:37:33;101031.50;;;34.73;39.49
20889;BME280;10604;51.976;7.594;2022-07-21T08:39:58;101023.28;;;34.58;39.24
20889;BME280;10604;51.976;7.594;2022-07-21T08:42:24;101029.47;;;35.30;38.83
20889;BME280;10604;51.976;7.594;2022-07-21T08:44:49;101029.22;;;35.60;37.74
20889;BME280;10604;51.976;7.594;2022-07-21T08:47:14;101029.56;;;35.78;37.52
20889;BME280;10604;51.976;7.594;2022-07-21T08:49:40;101027.00;;;35.42;37.93
20889;BME280;10604;51.976;7.594;2022-07-21T08:52:05;101033.81;;;35.53;38.02
20889;BME280;10604;51.976;7.594;2022-07-21T08:54:31;101025.53;;;35.74;37.44
20889;BME280;10604;51.976;7.594;2022-07-21T08:56:57;101030.75;;;35.69;37.47
20889;BME280;10604;51.976;7.594;2022-07-21T08:59:22;101034.25;;;36.32;37.17
20889;BME280;10604;51.976;7.594;2022-07-21T09:01:48;101023.72;;;35.04;37.92
20889;BME280;10604;51.976;7.594;2022-07-21T09:07:00;101047.47;;;37.75;35.67
20889;BME280;10604;51.976;7.594;2022-07-21T09:09:27;101029.06;;;35.68;36.39
20889;BME280;10604;51.976;7.594;2022-07-21T09:11:53;101037.94;;;36.04;36.73
20889;BME280;10604;51.976;7.594;2022-07-21T09:14:23;101042.84;;;36.96;35.97
20889;BME280;10604;51.976;7.594;2022-07-21T09:16:56;101034.22;;;36.19;36.19
20889;BME280;10604;51.976;7.594;2022-07-21T09:19:35;101028.81;;;34.22;38.54
20889;BME280;10604;51.976;7.594;2022-07-21T09:22:04;101027.13;;;35.06;36.47
20889;BME280;10604;51.976;7.594;2022-07-21T09:24:31;101028.69;;;34.30;38.17
20889;BME280;10604;51.976;7.594;2022-07-21T09:27:13;101027.31;;;35.26;36.98
20889;BME280;10604;51.976;7.594;2022-07-21T09:29:46;101031.16;;;35.31;37.53
20889;BME280;10604;51.976;7.594;2022-07-21T09:34:43;101029.31;;;34.32;38.16
20889;BME280;10604;51.976;7.594;2022-07-21T09:37:09;101036.25;;;34.85;38.93
20889;BME280;10604;51.976;7.594;2022-07-21T09:39:48;101038.25;;;33.46;39.30
20889;BME280;10604;51.976;7.594;2022-07-21T09:44:45;101039.00;;;35.13;36.89
20889;BME280;10604;51.976;7.594;2022-07-21T09:47:12;101033.47;;;34.43;37.09
20889;BME280;10604;51.976;7.594;2022-07-21T09:49:38;101040.69;;;33.41;38.09
20889;BME280;10604;51.976;7.594;2022-07-21T09:55:06;101030.44;;;33.87;37.78
20889;BME280;10604;51.976;7.594;2022-07-21T09:57:32;101037.88;;;35.57;36.98
20889;BME280;10604;51.976;7.594;2022-07-21T09:59:58;101022.41;;;33.86;37.41
20889;BME280;10604;51.976;7.594;2022-07-21T10:02:27;101031.72;;;34.56;36.43
20889;BME280;10604;51.976;7.594;2022-07-21T10:07:31;101034.81;;;36.14;36.04
20889;BME280;10604;51.976;7.594;2022-07-21T10:09:56;101033.22;;;35.85;35.75
20889;BME280;10604;51.976;7.594;2022-07-21T10:12:22;101032.25;;;34.67;35.55
20889;BME280;10604;51.976;7.594;2022-07-21T10:14:48;101032.31;;;35.78;35.19
20889;BME280;10604;51.976;7.594;2022-07-21T10:17:15;101039.94;;;35.83;34.75
20889;BME280;10604;51.976;7.594;2022-07-21T10:24:34;101044.09;;;37.79;33.06
20889;BME280;10604;51.976;7.594;2022-07-21T10:27:04;101045.41;;;36.98;33.20
20889;BME280;10604;51.976;7.594;2022-07-21T10:32:16;101041.16;;;36.88;32.94
20889;BME280;10604;51.976;7.594;2022-07-21T10:34:42;101028.72;;;36.19;33.42
20889;BME280;10604;51.976;7.594;2022-07-21T10:37:10;101027.72;;;36.46;33.17
20889;BME280;10604;51.976;7.594;2022-07-21T10:39:36;101026.41;;;35.81;33.39
20889;BME280;10604;51.976;7.594;2022-07-21T10:42:13;101035.69;;;37.15;32.33
20889;BME280;10604;51.976;7.594;2022-07-21T10:44:39;101030.19;;;35.74;33.88
20889;BME280;10604;51.976;7.594;2022-07-21T10:47:05;101045.38;;;37.11;32.61
20889;BME280;10604;51.976;7.594;2022-07-21T10:57:46;101026.63;;;38.05;31.63
20889;BME280;10604;51.976;7.594;2022-07-21T11:00:33;101032.16;;;37.92;30.99
20889;BME280;10604;51.976;7.594;2022-07-21T11:03:02;101027.91;;;38.40;30.83
20889;BME280;10604;51.976;7.594;2022-07-21T11:05:29;101032.19;;;39.24;30.27
20889;BME280;10604;51.976;7.594;2022-07-21T11:08:14;101036.72;;;39.80;29.00
20889;BME280;10604;51.976;7.594;2022-07-21T11:10:52;101029.47;;;39.85;29.57
20889;BME280;10604;51.976;7.594;2022-07-21T11:13:18;101030.06;;;37.81;30.52
20889;BME280;10604;51.976;7.594;2022-07-21T11:15:59;101018.06;;;39.39;29.58
20889;BME280;10604;51.976;7.594;2022-07-21T11:18:29;101017.00;;;37.10;30.02
20889;BME280;10604;51.976;7.594;2022-07-21T11:23:43;101009.44;;;37.12;31.96
20889;BME280;10604;51.976;7.594;2022-07-21T11:26:09;101006.63;;;39.10;29.78
20889;BME280;10604;51.976;7.594;2022-07-21T11:28:34;101008.97;;;37.35;30.52
20889;BME280;10604;51.976;7.594;2022-07-21T11:31:33;101006.28;;;37.93;30.05
20889;BME280;10604;51.976;7.594;2022-07-21T11:33:51;101007.53;;;38.04;29.36
20889;BME280;10604;51.976;7.594;2022-07-21T11:36:24;101012.03;;;40.15;28.48
20889;BME280;10604;51.976;7.594;2022-07-21T11:41:30;101001.91;;;39.36;29.13
20889;BME280;10604;51.976;7.594;2022-07-21T11:43:56;101003.56;;;40.58;27.22
20889;BME280;10604;51.976;7.594;2022-07-21T11:46:21;101007.47;;;40.09;27.68
20889;BME280;10604;51.976;7.594;2022-07-21T11:48:47;101011.50;;;39.08;28.53
20889;BME280;10604;51.976;7.594;2022-07-21T11:51:12;101013.63;;;39.13;28.83
20889;BME280;10604;51.976;7.594;2022-07-21T11:53:44;101007.09;;;38.00;30.88
20889;BME280;10604;51.976;7.594;2022-07-21T11:56:13;101008.22;;;39.79;28.89
20889;BME280;10604;51.976;7.594;2022-07-21T11:58:39;101004.06;;;39.34;28.29
20889;BME280;10604;51.976;7.594;2022-07-21T12:01:05;101003.81;;;39.42;28.55
20889;BME280;10604;51.976;7.594;2022-07-21T12:03:31;101011.63;;;38.95;29.23
20889;BME280;10604;51.976;7.594;2022-07-21T12:05:56;101019.13;;;39.38;28.30
20889;BME280;10604;51.976;7.594;2022-07-21T12:08:22;101018.50;;;37.39;31.11
20889;BME280;10604;51.976;7.594;2022-07-21T12:10:47;101031.97;;;34.62;35.63
20889;BME280;10604;51.976;7.594;2022-07-21T12:13:13;101036.84;;;34.24;38.21
20889;BME280;10604;51.976;7.594;2022-07-21T12:15:38;101041.03;;;32.86;39.79
20889;BME280;10604;51.976;7.594;2022-07-21T12:18:06;101043.91;;;32.39;42.21
20889;BME280;10604;51.976;7.594;2022-07-21T12:23:16;101046.31;;;33.77;40.61
20889;BME280;10604;51.976;7.594;2022-07-21T12:25:42;101036.50;;;34.33;39.58
20889;BME280;10604;51.976;7.594;2022-07-21T12:28:08;101039.28;;;33.08;42.09
20889;BME280;10604;51.976;7.594;2022-07-21T12:33:05;101039.75;;;34.22;40.37
20889;BME280;10604;51.976;7.594;2022-07-21T12:35:32;101043.63;;;35.34;39.85
20889;BME280;10604;51.976;7.594;2022-07-21T12:38:18;101037.63;;;36.21;37.89
20889;BME280;10604;51.976;7.594;2022-07-21T12:40:48;101045.31;;;35.63;38.79
20889;BME280;10604;51.976;7.594;2022-07-21T12:43:16;101037.00;;;35.84;39.92
20889;BME280;10604;51.976;7.594;2022-07-21T12:48:15;101054.00;;;35.39;39.26
20889;BME280;10604;51.976;7.594;2022-07-21T12:50:41;101050.94;;;33.76;41.65
20889;BME280;10604;51.976;7.594;2022-07-21T12:53:11;101055.25;;;34.00;41.75
20889;BME280;10604;51.976;7.594;2022-07-21T12:55:36;101052.19;;;33.74;42.64
20889;BME280;10604;51.976;7.594;2022-07-21T12:58:01;101059.41;;;33.52;42.59
20889;BME280;10604;51.976;7.594;2022-07-21T13:00:27;101056.97;;;33.87;41.59
20889;BME280;10604;51.976;7.594;2022-07-21T13:02:53;101060.56;;;33.20;42.24
20889;BME280;10604;51.976;7.594;2022-07-21T13:05:19;101052.41;;;33.64;43.69
20889;BME280;10604;51.976;7.594;2022-07-21T13:07:44;101048.47;;;35.32;41.15
20889;BME280;10604;51.976;7.594;2022-07-21T13:10:10;101046.00;;;34.52;40.20
20889;BME280;10604;51.976;7.594;2022-07-21T13:12:35;101050.75;;;33.93;41.52
20889;BME280;10604;51.976;7.594;2022-07-21T13:15:01;101049.56;;;33.43;43.23
20889;BME280;10604;51.976;7.594;2022-07-21T13:17:26;101052.31;;;32.60;44.20
20889;BME280;10604;51.976;7.594;2022-07-21T13:19:51;101039.28;;;33.45;43.28
20889;BME280;10604;51.976;7.594;2022-07-21T13:22:16;101037.31;;;33.39;43.92
20889;BME280;10604;51.976;7.594;2022-07-21T13:24:42;101044.88;;;34.46;40.52
20889;BME280;10604;51.976;7.594;2022-07-21T13:27:07;101042.75;;;34.27;41.80
20889;BME280;10604;51.976;7.594;2022-07-21T13:29:33;101039.97;;;33.10;42.35